sensor_id;sensor_type;location;lat;lon;timestamp;P1;durP1;ratioP1;P2;durP2;ratioP2
29934;SDS011;19905;53.370;-6.314;2023-07-28T00:00:23;2.40;;;1.30;;
29934;SDS011;19905;53.370;-6.314;2023-07-28T00:02:51;3.08;;;1.33;;
29934;SDS011;19905;53.370;-6.314;2023-07-28T00:05:20;1.50;;;1.20;;
29934;SDS011;19905;53.370;-6.314;2023-07-28T00:07:49;3.30;;;1.23;;
29934;SDS011;19905;53.370;-6.314;2023-07-28T00:10:17;2.20;;;1.40;;
29934;SDS011;19905;53.370;-6.314;2023-07-28T00:12:46;2.35;;;1.13;;
29934;SDS011;19905;53.370;-6.314;2023-07-28T00:15:16;2.67;;;1.23;;
29934;SDS011;19905;53.370;-6.314;2023-07-28T00:17:45;2.15;;;1.00;;
29934;SDS011;19905;53.370;-6.314;2023-07-28T00:20:14;2.78;;;1.20;;
29934;SDS011;19905;53.370;-6.314;2023-07-28T00:22:43;3.00;;;1.00;;
29934;SDS011;19905;53.370;-6.314;2023-07-28T00:25:12;2.28;;;1.20;;
29934;SDS011;19905;53.370;-6.314;2023-07-28T00:27:40;3.45;;;1.40;;
29934;SDS011;19905;53.370;-6.314;2023-07-28T00:30:10;1.80;;;1.10;;
29934;SDS011;19905;53.370;-6.314;2023-07-28T00:32:41;2.88;;;1.10;;
29934;SDS011;19905;53.370;-6.314;2023-07-28T00:35:10;1.60;;;1.20;;
29934;SDS011;19905;53.370;-6.314;2023-07-28T00:37:38;1.80;;;1.08;;
29934;SDS011;19905;53.370;-6.314;2023-07-28T00:40:07;4.75;;;1.02;;
29934;SDS011;19905;53.370;-6.314;2023-07-28T00:42:37;3.33;;;1.20;;
29934;SDS011;19905;53.370;-6.314;2023-07-28T00:45:07;3.70;;;1.27;;
29934;SDS011;19905;53.370;-6.314;2023-07-28T00:47:36;3.08;;;1.33;;
29934;SDS011;19905;53.370;-6.314;2023-07-28T00:50:08;2.00;;;1.20;;
29934;SDS011;19905;53.370;-6.314;2023-07-28T00:52:37;3.10;;;1.30;;
29934;SDS011;19905;53.370;-6.314;2023-07-28T00:55:06;2.60;;;1.23;;
29934;SDS011;19905;53.370;-6.314;2023-07-28T00:57:35;2.40;;;1.60;;
29934;SDS011;19905;53.370;-6.314;2023-07-28T01:00:06;3.00;;;1.10;;
29934;SDS011;19905;53.370;-6.314;2023-07-28T01:02:36;2.83;;;1.40;;
29934;SDS011;19905;53.370;-6.314;2023-07-28T01:05:07;2.15;;;1.20;;
29934;SDS011;19905;53.370;-6.314;2023-07-28T01:07:37;3.20;;;1.30;;
29934;SDS011;19905;53.370;-6.314;2023-07-28T01:10:13;3.65;;;1.27;;
29934;SDS011;19905;53.370;-6.314;2023-07-28T01:12:46;2.20;;;1.23;;
29934;SDS011;19905;53.370;-6.314;2023-07-28T01:15:14;3.65;;;1.23;;
29934;SDS011;19905;53.370;-6.314;2023-07-28T01:17:43;4.55;;;1.40;;
29934;SDS011;19905;53.370;-6.314;2023-07-28T01:20:13;2.70;;;1.20;;
29934;SDS011;19905;53.370;-6.314;2023-07-28T01:22:46;2.38;;;1.30;;
29934;SDS011;19905;53.370;-6.314;2023-07-28T01:25:27;3.05;;;1.30;;
29934;SDS011;19905;53.370;-6.314;2023-07-28T01:28:11;5.90;;;1.42;;
29934;SDS011;19905;53.370;-6.314;2023-07-28T01:30:41;2.13;;;1.23;;
29934;SDS011;19905;53.370;-6.314;2023-07-28T01:33:10;4.88;;;1.30;;
29934;SDS011;19905;53.370;-6.314;2023-07-28T01:35:39;5.82;;;1.40;;
29934;SDS011;19905;53.370;-6.314;2023-07-28T01:38:07;2.40;;;1.27;;
29934;SDS011;19905;53.370;-6.314;2023-07-28T01:40:38;3.58;;;1.40;;
29934;SDS011;19905;53.370;-6.314;2023-07-28T01:43:06;4.22;;;1.50;;
29934;SDS011;19905;53.370;-6.314;2023-07-28T01:45:36;4.43;;;1.50;;
29934;SDS011;19905;53.370;-6.314;2023-07-28T01:48:05;4.75;;;1.80;;
29934;SDS011;19905;53.370;-6.314;2023-07-28T01:50:35;5.00;;;1.55;;
29934;SDS011;19905;53.370;-6.314;2023-07-28T01:53:04;4.70;;;1.70;;
29934;SDS011;19905;53.370;-6.314;2023-07-28T01:55:33;3.72;;;1.70;;
29934;SDS011;19905;53.370;-6.314;2023-07-28T01:58:02;5.85;;;1.50;;
29934;SDS011;19905;53.370;-6.314;2023-07-28T02:00:30;5.43;;;1.77;;
29934;SDS011;19905;53.370;-6.314;2023-07-28T02:03:00;5.35;;;1.65;;
29934;SDS011;19905;53.370;-6.314;2023-07-28T02:05:30;6.03;;;1.60;;
29934;SDS011;19905;53.370;-6.314;2023-07-28T02:07:59;6.45;;;2.10;;
29934;SDS011;19905;53.370;-6.314;2023-07-28T02:10:28;5.63;;;1.80;;
29934;SDS011;19905;53.370;-6.314;2023-07-28T02:12:57;3.70;;;1.65;;
29934;SDS011;19905;53.370;-6.314;2023-07-28T02:15:27;4.35;;;1.90;;
29934;SDS011;19905;53.370;-6.314;2023-07-28T02:17:55;4.82;;;1.60;;
29934;SDS011;19905;53.370;-6.314;2023-07-28T02:20:25;7.88;;;1.90;;
29934;SDS011;19905;53.370;-6.314;2023-07-28T02:22:54;3.97;;;1.70;;
29934;SDS011;19905;53.370;-6.314;2023-07-28T02:25:23;7.90;;;1.70;;
29934;SDS011;19905;53.370;-6.314;2023-07-28T02:27:51;5.10;;;1.70;;
29934;SDS011;19905;53.370;-6.314;2023-07-28T02:30:20;3.97;;;1.55;;
29934;SDS011;19905;53.370;-6.314;2023-07-28T02:32:49;5.38;;;1.85;;
29934;SDS011;19905;53.370;-6.314;2023-07-28T02:35:17;6.13;;;1.95;;
29934;SDS011;19905;53.370;-6.314;2023-07-28T02:37:48;5.60;;;2.10;;
29934;SDS011;19905;53.370;-6.314;2023-07-28T02:40:17;6.55;;;1.85;;
29934;SDS011;19905;53.370;-6.314;2023-07-28T02:42:46;5.80;;;2.03;;
29934;SDS011;19905;53.370;-6.314;2023-07-28T02:45:15;6.65;;;1.70;;
29934;SDS011;19905;53.370;-6.314;2023-07-28T02:47:44;5.78;;;1.73;;
29934;SDS011;19905;53.370;-6.314;2023-07-28T02:50:12;7.43;;;1.95;;
29934;SDS011;19905;53.370;-6.314;2023-07-28T02:52:41;3.70;;;1.67;;
29934;SDS011;19905;53.370;-6.314;2023-07-28T02:55:12;6.47;;;1.90;;
29934;SDS011;19905;53.370;-6.314;2023-07-28T02:57:40;5.60;;;1.77;;
29934;SDS011;19905;53.370;-6.314;2023-07-28T03:00:09;6.82;;;1.90;;
29934;SDS011;19905;53.370;-6.314;2023-07-28T03:02:40;7.88;;;1.83;;
29934;SDS011;19905;53.370;-6.314;2023-07-28T03:05:09;4.15;;;1.80;;
29934;SDS011;19905;53.370;-6.314;2023-07-28T03:07:38;3.83;;;1.85;;
29934;SDS011;19905;53.370;-6.314;2023-07-28T03:10:07;4.60;;;1.95;;
29934;SDS011;19905;53.370;-6.314;2023-07-28T03:12:38;6.13;;;1.90;;
29934;SDS011;19905;53.370;-6.314;2023-07-28T03:15:08;6.15;;;1.88;;
29934;SDS011;19905;53.370;-6.314;2023-07-28T03:17:37;6.18;;;1.60;;
29934;SDS011;19905;53.370;-6.314;2023-07-28T03:20:06;7.82;;;2.05;;
29934;SDS011;19905;53.370;-6.314;2023-07-28T03:22:35;5.05;;;1.80;;
29934;SDS011;19905;53.370;-6.314;2023-07-28T03:25:04;4.47;;;1.73;;
29934;SDS011;19905;53.370;-6.314;2023-07-28T03:27:33;4.18;;;2.10;;
29934;SDS011;19905;53.370;-6.314;2023-07-28T03:30:04;8.48;;;2.05;;
29934;SDS011;19905;53.370;-6.314;2023-07-28T03:32:36;5.15;;;1.70;;
29934;SDS011;19905;53.370;-6.314;2023-07-28T03:35:05;5.22;;;1.60;;
29934;SDS011;19905;53.370;-6.314;2023-07-28T03:37:35;7.47;;;2.35;;
29934;SDS011;19905;53.370;-6.314;2023-07-28T03:40:04;6.00;;;1.83;;
29934;SDS011;19905;53.370;-6.314;2023-07-28T03:42:34;4.40;;;1.92;;
29934;SDS011;19905;53.370;-6.314;2023-07-28T03:45:05;4.40;;;1.77;;
29934;SDS011;19905;53.370;-6.314;2023-07-28T03:47:35;7.50;;;1.85;;
29934;SDS011;19905;53.370;-6.314;2023-07-28T03:50:04;6.85;;;2.50;;
29934;SDS011;19905;53.370;-6.314;2023-07-28T03:52:33;5.82;;;2.05;;
29934;SDS011;19905;53.370;-6.314;2023-07-28T03:55:02;5.05;;;1.70;;
29934;SDS011;19905;53.370;-6.314;2023-07-28T03:57:30;6.63;;;1.70;;
29934;SDS011;19905;53.370;-6.314;2023-07-28T03:59:59;4.93;;;1.73;;
29934;SDS011;19905;53.370;-6.314;2023-07-28T04:02:30;5.80;;;1.85;;
29934;SDS011;19905;53.370;-6.314;2023-07-28T04:04:58;6.63;;;2.00;;
29934;SDS011;19905;53.370;-6.314;2023-07-28T04:07:27;4.95;;;1.83;;
29934;SDS011;19905;53.370;-6.314;2023-07-28T04:09:55;5.55;;;1.80;;
29934;SDS011;19905;53.370;-6.314;2023-07-28T04:12:24;5.75;;;1.70;;
29934;SDS011;19905;53.370;-6.314;2023-07-28T04:14:55;3.95;;;1.80;;
29934;SDS011;19905;53.370;-6.314;2023-07-28T04:17:23;3.83;;;1.70;;
29934;SDS011;19905;53.370;-6.314;2023-07-28T04:19:53;6.35;;;1.88;;
29934;SDS011;19905;53.370;-6.314;2023-07-28T04:22:21;5.22;;;1.58;;
29934;SDS011;19905;53.370;-6.314;2023-07-28T04:24:50;4.90;;;1.92;;
29934;SDS011;19905;53.370;-6.314;2023-07-28T04:27:18;5.30;;;2.20;;
29934;SDS011;19905;53.370;-6.314;2023-07-28T04:29:47;6.05;;;1.73;;
29934;SDS011;19905;53.370;-6.314;2023-07-28T04:32:16;5.10;;;1.80;;
29934;SDS011;19905;53.370;-6.314;2023-07-28T04:34:44;5.53;;;1.55;;
29934;SDS011;19905;53.370;-6.314;2023-07-28T04:37:14;5.82;;;1.83;;
29934;SDS011;19905;53.370;-6.314;2023-07-28T04:39:43;5.97;;;1.65;;
29934;SDS011;19905;53.370;-6.314;2023-07-28T04:42:11;5.60;;;1.80;;
29934;SDS011;19905;53.370;-6.314;2023-07-28T04:44:40;5.20;;;1.90;;
29934;SDS011;19905;53.370;-6.314;2023-07-28T04:47:09;5.15;;;1.77;;
29934;SDS011;19905;53.370;-6.314;2023-07-28T04:49:38;6.65;;;2.08;;
29934;SDS011;19905;53.370;-6.314;2023-07-28T04:52:07;4.93;;;2.10;;
29934;SDS011;19905;53.370;-6.314;2023-07-28T04:54:38;6.38;;;1.85;;
29934;SDS011;19905;53.370;-6.314;2023-07-28T04:57:07;5.35;;;1.80;;
29934;SDS011;19905;53.370;-6.314;2023-07-28T04:59:37;4.93;;;2.00;;
29934;SDS011;19905;53.370;-6.314;2023-07-28T05:02:06;4.53;;;1.50;;
29934;SDS011;19905;53.370;-6.314;2023-07-28T05:04:35;4.93;;;1.65;;
29934;SDS011;19905;53.370;-6.314;2023-07-28T05:07:04;5.70;;;1.70;;
29934;SDS011;19905;53.370;-6.314;2023-07-28T05:09:32;5.72;;;1.55;;
29934;SDS011;19905;53.370;-6.314;2023-07-28T05:12:03;4.57;;;1.58;;
29934;SDS011;19905;53.370;-6.314;2023-07-28T05:14:32;6.65;;;1.85;;
29934;SDS011;19905;53.370;-6.314;2023-07-28T05:17:02;4.40;;;1.40;;
29934;SDS011;19905;53.370;-6.314;2023-07-28T05:19:30;5.93;;;1.60;;
29934;SDS011;19905;53.370;-6.314;2023-07-28T05:21:59;4.25;;;1.60;;
29934;SDS011;19905;53.370;-6.314;2023-07-28T05:24:29;4.95;;;1.58;;
29934;SDS011;19905;53.370;-6.314;2023-07-28T05:26:58;7.22;;;1.67;;
29934;SDS011;19905;53.370;-6.314;2023-07-28T05:29:28;4.13;;;1.50;;
29934;SDS011;19905;53.370;-6.314;2023-07-28T05:31:57;8.38;;;1.80;;
29934;SDS011;19905;53.370;-6.314;2023-07-28T05:34:27;7.78;;;1.65;;
29934;SDS011;19905;53.370;-6.314;2023-07-28T05:36:56;5.30;;;1.88;;
29934;SDS011;19905;53.370;-6.314;2023-07-28T05:39:24;8.43;;;1.95;;
29934;SDS011;19905;53.370;-6.314;2023-07-28T05:41:53;6.60;;;2.10;;
29934;SDS011;19905;53.370;-6.314;2023-07-28T05:44:29;6.50;;;1.90;;
29934;SDS011;19905;53.370;-6.314;2023-07-28T05:46:59;12.23;;;2.00;;
29934;SDS011;19905;53.370;-6.314;2023-07-28T05:49:27;6.97;;;2.10;;
29934;SDS011;19905;53.370;-6.314;2023-07-28T05:51:57;10.05;;;2.17;;
29934;SDS011;19905;53.370;-6.314;2023-07-28T05:54:25;8.25;;;2.08;;
29934;SDS011;19905;53.370;-6.314;2023-07-28T05:56:54;7.72;;;2.30;;
29934;SDS011;19905;53.370;-6.314;2023-07-28T05:59:24;7.32;;;2.20;;
29934;SDS011;19905;53.370;-6.314;2023-07-28T06:01:54;4.80;;;1.80;;
29934;SDS011;19905;53.370;-6.314;2023-07-28T06:04:22;7.60;;;2.00;;
29934;SDS011;19905;53.370;-6.314;2023-07-28T06:06:52;10.02;;;2.30;;
29934;SDS011;19905;53.370;-6.314;2023-07-28T06:09:20;7.32;;;2.20;;
29934;SDS011;19905;53.370;-6.314;2023-07-28T06:11:49;6.72;;;2.38;;
29934;SDS011;19905;53.370;-6.314;2023-07-28T06:14:17;7.25;;;2.30;;
29934;SDS011;19905;53.370;-6.314;2023-07-28T06:16:46;7.57;;;2.33;;
29934;SDS011;19905;53.370;-6.314;2023-07-28T06:19:16;9.48;;;2.80;;
29934;SDS011;19905;53.370;-6.314;2023-07-28T06:21:50;6.55;;;2.13;;
29934;SDS011;19905;53.370;-6.314;2023-07-28T06:24:19;7.88;;;2.30;;
29934;SDS011;19905;53.370;-6.314;2023-07-28T06:26:48;7.20;;;2.33;;
29934;SDS011;19905;53.370;-6.314;2023-07-28T06:29:17;4.80;;;1.88;;
29934;SDS011;19905;53.370;-6.314;2023-07-28T06:31:46;8.43;;;2.15;;
29934;SDS011;19905;53.370;-6.314;2023-07-28T06:34:14;6.15;;;1.83;;
29934;SDS011;19905;53.370;-6.314;2023-07-28T06:36:45;10.07;;;2.28;;
29934;SDS011;19905;53.370;-6.314;2023-07-28T06:39:13;7.40;;;1.85;;
29934;SDS011;19905;53.370;-6.314;2023-07-28T06:41:42;7.90;;;2.20;;
29934;SDS011;19905;53.370;-6.314;2023-07-28T06:44:12;6.32;;;1.80;;
29934;SDS011;19905;53.370;-6.314;2023-07-28T06:46:40;7.93;;;2.10;;
29934;SDS011;19905;53.370;-6.314;2023-07-28T06:49:11;6.40;;;2.00;;
29934;SDS011;19905;53.370;-6.314;2023-07-28T06:51:40;7.38;;;1.70;;
29934;SDS011;19905;53.370;-6.314;2023-07-28T06:54:11;6.40;;;1.85;;
29934;SDS011;19905;53.370;-6.314;2023-07-28T06:56:39;6.63;;;1.80;;
29934;SDS011;19905;53.370;-6.314;2023-07-28T06:59:08;5.65;;;1.60;;
29934;SDS011;19905;53.370;-6.314;2023-07-28T07:01:45;6.00;;;1.70;;
29934;SDS011;19905;53.370;-6.314;2023-07-28T07:04:13;3.53;;;1.50;;
29934;SDS011;19905;53.370;-6.314;2023-07-28T07:06:42;6.47;;;1.80;;
29934;SDS011;19905;53.370;-6.314;2023-07-28T07:09:13;4.80;;;1.60;;
29934;SDS011;19905;53.370;-6.314;2023-07-28T07:11:42;7.78;;;1.70;;
29934;SDS011;19905;53.370;-6.314;2023-07-28T07:14:10;5.55;;;1.52;;
29934;SDS011;19905;53.370;-6.314;2023-07-28T07:16:39;7.00;;;1.92;;
29934;SDS011;19905;53.370;-6.314;2023-07-28T07:19:08;4.43;;;1.80;;
29934;SDS011;19905;53.370;-6.314;2023-07-28T07:21:36;4.35;;;1.70;;
29934;SDS011;19905;53.370;-6.314;2023-07-28T07:24:05;4.45;;;1.30;;
29934;SDS011;19905;53.370;-6.314;2023-07-28T07:26:35;6.05;;;1.50;;
29934;SDS011;19905;53.370;-6.314;2023-07-28T07:29:05;2.47;;;1.40;;
29934;SDS011;19905;53.370;-6.314;2023-07-28T07:31:33;5.95;;;1.60;;
29934;SDS011;19905;53.370;-6.314;2023-07-28T07:34:02;6.63;;;1.60;;
29934;SDS011;19905;53.370;-6.314;2023-07-28T07:36:31;6.57;;;1.65;;
29934;SDS011;19905;53.370;-6.314;2023-07-28T07:39:00;7.97;;;1.65;;
29934;SDS011;19905;53.370;-6.314;2023-07-28T07:41:29;6.32;;;1.50;;
29934;SDS011;19905;53.370;-6.314;2023-07-28T07:43:59;7.97;;;2.00;;
29934;SDS011;19905;53.370;-6.314;2023-07-28T07:46:27;5.35;;;1.70;;
29934;SDS011;19905;53.370;-6.314;2023-07-28T07:48:58;6.85;;;1.95;;
29934;SDS011;19905;53.370;-6.314;2023-07-28T07:51:27;4.43;;;1.60;;
29934;SDS011;19905;53.370;-6.314;2023-07-28T07:53:55;6.60;;;1.77;;
29934;SDS011;19905;53.370;-6.314;2023-07-28T07:56:24;6.35;;;1.52;;
29934;SDS011;19905;53.370;-6.314;2023-07-28T07:58:52;6.60;;;1.50;;
29934;SDS011;19905;53.370;-6.314;2023-07-28T08:01:23;6.97;;;1.60;;
29934;SDS011;19905;53.370;-6.314;2023-07-28T08:03:51;7.55;;;1.20;;
29934;SDS011;19905;53.370;-6.314;2023-07-28T08:06:20;4.57;;;1.20;;
29934;SDS011;19905;53.370;-6.314;2023-07-28T08:08:50;3.45;;;1.30;;
29934;SDS011;19905;53.370;-6.314;2023-07-28T08:11:21;4.72;;;1.50;;
29934;SDS011;19905;53.370;-6.314;2023-07-28T08:13:49;4.07;;;1.50;;
29934;SDS011;19905;53.370;-6.314;2023-07-28T08:16:17;9.25;;;1.80;;
29934;SDS011;19905;53.370;-6.314;2023-07-28T08:18:49;5.40;;;1.40;;
29934;SDS011;19905;53.370;-6.314;2023-07-28T08:21:17;6.32;;;1.48;;
29934;SDS011;19905;53.370;-6.314;2023-07-28T08:23:45;7.05;;;1.65;;
29934;SDS011;19905;53.370;-6.314;2023-07-28T08:26:14;7.25;;;1.15;;
29934;SDS011;19905;53.370;-6.314;2023-07-28T08:28:42;4.47;;;1.15;;
29934;SDS011;19905;53.370;-6.314;2023-07-28T08:31:12;4.72;;;1.17;;
29934;SDS011;19905;53.370;-6.314;2023-07-28T08:33:41;4.82;;;1.50;;
29934;SDS011;19905;53.370;-6.314;2023-07-28T08:36:11;5.15;;;1.30;;
29934;SDS011;19905;53.370;-6.314;2023-07-28T08:38:40;5.63;;;1.35;;
29934;SDS011;19905;53.370;-6.314;2023-07-28T08:41:08;2.78;;;1.02;;
29934;SDS011;19905;53.370;-6.314;2023-07-28T08:46:13;3.58;;;1.30;;
29934;SDS011;19905;53.370;-6.314;2023-07-28T08:48:47;5.63;;;1.55;;
29934;SDS011;19905;53.370;-6.314;2023-07-28T08:51:22;2.88;;;1.38;;
29934;SDS011;19905;53.370;-6.314;2023-07-28T08:53:51;3.38;;;1.20;;
29934;SDS011;19905;53.370;-6.314;2023-07-28T08:56:20;2.90;;;1.13;;
29934;SDS011;19905;53.370;-6.314;2023-07-28T08:58:54;3.08;;;1.13;;
29934;SDS011;19905;53.370;-6.314;2023-07-28T09:01:26;3.00;;;1.00;;
29934;SDS011;19905;53.370;-6.314;2023-07-28T09:03:58;1.50;;;0.82;;
29934;SDS011;19905;53.370;-6.314;2023-07-28T09:06:38;3.70;;;1.13;;
29934;SDS011;19905;53.370;-6.314;2023-07-28T09:09:14;2.33;;;1.00;;
29934;SDS011;19905;53.370;-6.314;2023-07-28T09:11:59;4.45;;;1.20;;
29934;SDS011;19905;53.370;-6.314;2023-07-28T09:14:35;2.92;;;0.85;;
29934;SDS011;19905;53.370;-6.314;2023-07-28T09:17:11;3.00;;;1.10;;
29934;SDS011;19905;53.370;-6.314;2023-07-28T09:19:54;2.38;;;1.02;;
29934;SDS011;19905;53.370;-6.314;2023-07-28T09:22:26;3.55;;;1.15;;
29934;SDS011;19905;53.370;-6.314;2023-07-28T09:25:00;2.83;;;1.20;;
29934;SDS011;19905;53.370;-6.314;2023-07-28T09:27:49;3.65;;;1.10;;
29934;SDS011;19905;53.370;-6.314;2023-07-28T09:30:22;4.93;;;1.23;;
29934;SDS011;19905;53.370;-6.314;2023-07-28T09:36:39;1.67;;;0.80;;
29934;SDS011;19905;53.370;-6.314;2023-07-28T09:40:00;2.80;;;0.90;;
29934;SDS011;19905;53.370;-6.314;2023-07-28T09:43:43;2.50;;;1.00;;
29934;SDS011;19905;53.370;-6.314;2023-07-28T09:54:33;3.33;;;0.70;;
29934;SDS011;19905;53.370;-6.314;2023-07-28T09:57:13;2.05;;;0.73;;
29934;SDS011;19905;53.370;-6.314;2023-07-28T09:59:53;1.98;;;0.80;;
29934;SDS011;19905;53.370;-6.314;2023-07-28T10:02:24;3.03;;;0.90;;
29934;SDS011;19905;53.370;-6.314;2023-07-28T10:05:00;3.17;;;0.90;;
29934;SDS011;19905;53.370;-6.314;2023-07-28T10:07:46;3.85;;;1.00;;
29934;SDS011;19905;53.370;-6.314;2023-07-28T10:10:24;4.45;;;0.90;;
29934;SDS011;19905;53.370;-6.314;2023-07-28T10:12:58;1.90;;;0.80;;
29934;SDS011;19905;53.370;-6.314;2023-07-28T10:15:31;5.88;;;1.08;;
29934;SDS011;19905;53.370;-6.314;2023-07-28T10:18:03;4.53;;;1.00;;
29934;SDS011;19905;53.370;-6.314;2023-07-28T10:20:36;3.45;;;0.90;;
29934;SDS011;19905;53.370;-6.314;2023-07-28T10:23:09;3.20;;;0.82;;
29934;SDS011;19905;53.370;-6.314;2023-07-28T10:25:42;1.05;;;0.73;;
29934;SDS011;19905;53.370;-6.314;2023-07-28T10:31:12;1.42;;;0.70;;
29934;SDS011;19905;53.370;-6.314;2023-07-28T10:33:52;2.90;;;0.70;;
29934;SDS011;19905;53.370;-6.314;2023-07-28T10:36:32;1.52;;;0.60;;
29934;SDS011;19905;53.370;-6.314;2023-07-28T10:39:12;2.45;;;0.80;;
29934;SDS011;19905;53.370;-6.314;2023-07-28T10:42:00;1.52;;;0.80;;
29934;SDS011;19905;53.370;-6.314;2023-07-28T10:44:38;2.17;;;0.70;;
29934;SDS011;19905;53.370;-6.314;2023-07-28T10:47:11;2.38;;;0.80;;
29934;SDS011;19905;53.370;-6.314;2023-07-28T10:49:46;1.55;;;0.80;;
29934;SDS011;19905;53.370;-6.314;2023-07-28T10:52:18;2.58;;;0.80;;
29934;SDS011;19905;53.370;-6.314;2023-07-28T10:54:46;1.38;;;0.70;;
29934;SDS011;19905;53.370;-6.314;2023-07-28T10:57:17;3.30;;;0.90;;
29934;SDS011;19905;53.370;-6.314;2023-07-28T10:59:54;4.97;;;0.77;;
29934;SDS011;19905;53.370;-6.314;2023-07-28T11:02:28;3.80;;;0.73;;
29934;SDS011;19905;53.370;-6.314;2023-07-28T11:05:05;1.70;;;0.70;;
29934;SDS011;19905;53.370;-6.314;2023-07-28T11:10:10;1.17;;;0.60;;
29934;SDS011;19905;53.370;-6.314;2023-07-28T11:12:42;3.00;;;0.50;;
29934;SDS011;19905;53.370;-6.314;2023-07-28T11:15:16;1.10;;;0.60;;
29934;SDS011;19905;53.370;-6.314;2023-07-28T11:17:52;2.58;;;0.60;;
29934;SDS011;19905;53.370;-6.314;2023-07-28T11:20:23;1.08;;;0.60;;
29934;SDS011;19905;53.370;-6.314;2023-07-28T11:23:04;2.13;;;0.50;;
29934;SDS011;19905;53.370;-6.314;2023-07-28T11:25:57;1.40;;;0.52;;
29934;SDS011;19905;53.370;-6.314;2023-07-28T11:28:28;1.75;;;0.60;;
29934;SDS011;19905;53.370;-6.314;2023-07-28T11:31:03;2.13;;;0.60;;
29934;SDS011;19905;53.370;-6.314;2023-07-28T11:33:32;1.20;;;0.43;;
29934;SDS011;19905;53.370;-6.314;2023-07-28T11:38:34;1.95;;;0.70;;
29934;SDS011;19905;53.370;-6.314;2023-07-28T11:41:09;1.92;;;0.60;;
29934;SDS011;19905;53.370;-6.314;2023-07-28T11:43:48;1.15;;;0.70;;
29934;SDS011;19905;53.370;-6.314;2023-07-28T11:49:13;1.00;;;0.60;;
29934;SDS011;19905;53.370;-6.314;2023-07-28T11:51:50;3.35;;;0.60;;
29934;SDS011;19905;53.370;-6.314;2023-07-28T11:54:32;3.42;;;0.50;;
29934;SDS011;19905;53.370;-6.314;2023-07-28T11:57:13;1.60;;;0.55;;
29934;SDS011;19905;53.370;-6.314;2023-07-28T11:59:44;2.78;;;0.60;;
29934;SDS011;19905;53.370;-6.314;2023-07-28T12:02:29;1.55;;;0.50;;
29934;SDS011;19905;53.370;-6.314;2023-07-28T12:05:13;1.38;;;0.55;;
29934;SDS011;19905;53.370;-6.314;2023-07-28T12:08:09;2.08;;;0.80;;
29934;SDS011;19905;53.370;-6.314;2023-07-28T12:14:09;1.13;;;0.60;;
29934;SDS011;19905;53.370;-6.314;2023-07-28T12:16:51;1.30;;;0.70;;
29934;SDS011;19905;53.370;-6.314;2023-07-28T12:19:27;3.53;;;0.70;;
29934;SDS011;19905;53.370;-6.314;2023-07-28T12:22:04;2.22;;;0.73;;
29934;SDS011;19905;53.370;-6.314;2023-07-28T12:24:44;2.47;;;0.60;;
29934;SDS011;19905;53.370;-6.314;2023-07-28T12:27:14;2.85;;;1.10;;
29934;SDS011;19905;53.370;-6.314;2023-07-28T12:29:51;3.40;;;0.80;;
29934;SDS011;19905;53.370;-6.314;2023-07-28T12:32:29;2.35;;;0.90;;
29934;SDS011;19905;53.370;-6.314;2023-07-28T12:35:09;3.22;;;0.80;;
29934;SDS011;19905;53.370;-6.314;2023-07-28T12:37:40;2.92;;;0.70;;
29934;SDS011;19905;53.370;-6.314;2023-07-28T12:40:14;2.17;;;0.98;;
29934;SDS011;19905;53.370;-6.314;2023-07-28T12:42:48;2.33;;;1.00;;
29934;SDS011;19905;53.370;-6.314;2023-07-28T12:45:20;2.40;;;0.90;;
29934;SDS011;19905;53.370;-6.314;2023-07-28T12:47:56;2.33;;;0.93;;
29934;SDS011;19905;53.370;-6.314;2023-07-28T12:50:35;4.07;;;1.10;;
29934;SDS011;19905;53.370;-6.314;2023-07-28T12:53:08;4.03;;;1.27;;
29934;SDS011;19905;53.370;-6.314;2023-07-28T12:55:43;1.83;;;1.10;;
29934;SDS011;19905;53.370;-6.314;2023-07-28T12:58:19;3.47;;;1.20;;
29934;SDS011;19905;53.370;-6.314;2023-07-28T13:00:52;4.35;;;1.15;;
29934;SDS011;19905;53.370;-6.314;2023-07-28T13:03:24;2.70;;;1.02;;
29934;SDS011;19905;53.370;-6.314;2023-07-28T13:05:57;2.20;;;1.10;;
29934;SDS011;19905;53.370;-6.314;2023-07-28T13:08:26;2.15;;;0.93;;
29934;SDS011;19905;53.370;-6.314;2023-07-28T13:11:17;3.42;;;1.10;;
29934;SDS011;19905;53.370;-6.314;2023-07-28T13:13:47;1.63;;;1.00;;
29934;SDS011;19905;53.370;-6.314;2023-07-28T13:16:17;2.65;;;1.13;;
29934;SDS011;19905;53.370;-6.314;2023-07-28T13:18:48;2.78;;;1.02;;
29934;SDS011;19905;53.370;-6.314;2023-07-28T13:21:26;3.53;;;1.38;;
29934;SDS011;19905;53.370;-6.314;2023-07-28T13:23:57;3.15;;;1.08;;
29934;SDS011;19905;53.370;-6.314;2023-07-28T13:26:27;4.30;;;1.30;;
29934;SDS011;19905;53.370;-6.314;2023-07-28T13:32:44;2.30;;;1.20;;
29934;SDS011;19905;53.370;-6.314;2023-07-28T14:05:21;3.50;;;0.77;;
29934;SDS011;19905;53.370;-6.314;2023-07-28T14:07:49;4.95;;;0.85;;
29934;SDS011;19905;53.370;-6.314;2023-07-28T14:10:18;3.72;;;0.85;;
29934;SDS011;19905;53.370;-6.314;2023-07-28T14:12:47;3.42;;;1.05;;
29934;SDS011;19905;53.370;-6.314;2023-07-28T14:15:15;4.00;;;0.90;;
29934;SDS011;19905;53.370;-6.314;2023-07-28T14:17:44;3.20;;;1.00;;
29934;SDS011;19905;53.370;-6.314;2023-07-28T14:20:13;1.75;;;1.02;;
29934;SDS011;19905;53.370;-6.314;2023-07-28T14:22:43;3.15;;;1.20;;
29934;SDS011;19905;53.370;-6.314;2023-07-28T14:25:12;3.13;;;0.90;;
29934;SDS011;19905;53.370;-6.314;2023-07-28T14:27:41;1.92;;;1.10;;
29934;SDS011;19905;53.370;-6.314;2023-07-28T14:30:10;6.55;;;1.13;;
29934;SDS011;19905;53.370;-6.314;2023-07-28T14:32:39;2.85;;;0.98;;
29934;SDS011;19905;53.370;-6.314;2023-07-28T14:35:08;4.07;;;1.20;;
29934;SDS011;19905;53.370;-6.314;2023-07-28T14:37:36;2.88;;;0.90;;
29934;SDS011;19905;53.370;-6.314;2023-07-28T14:40:08;2.05;;;1.00;;
29934;SDS011;19905;53.370;-6.314;2023-07-28T14:42:37;6.20;;;1.08;;
29934;SDS011;19905;53.370;-6.314;2023-07-28T14:45:06;4.05;;;1.20;;
29934;SDS011;19905;53.370;-6.314;2023-07-28T14:47:36;2.40;;;0.93;;
29934;SDS011;19905;53.370;-6.314;2023-07-28T14:50:05;4.00;;;1.20;;
29934;SDS011;19905;53.370;-6.314;2023-07-28T14:52:34;4.50;;;1.55;;
29934;SDS011;19905;53.370;-6.314;2023-07-28T14:55:03;2.97;;;0.95;;
29934;SDS011;19905;53.370;-6.314;2023-07-28T14:57:34;4.07;;;1.20;;
29934;SDS011;19905;53.370;-6.314;2023-07-28T15:00:03;5.32;;;1.13;;
29934;SDS011;19905;53.370;-6.314;2023-07-28T15:02:32;3.17;;;0.73;;
29934;SDS011;19905;53.370;-6.314;2023-07-28T15:05:03;3.00;;;0.80;;
29934;SDS011;19905;53.370;-6.314;2023-07-28T15:07:33;2.88;;;0.73;;
29934;SDS011;19905;53.370;-6.314;2023-07-28T15:10:03;1.40;;;0.80;;
29934;SDS011;19905;53.370;-6.314;2023-07-28T15:12:33;1.25;;;0.90;;
29934;SDS011;19905;53.370;-6.314;2023-07-28T15:15:02;2.97;;;1.00;;
29934;SDS011;19905;53.370;-6.314;2023-07-28T15:17:31;2.28;;;0.90;;
29934;SDS011;19905;53.370;-6.314;2023-07-28T15:20:00;5.18;;;1.00;;
29934;SDS011;19905;53.370;-6.314;2023-07-28T15:22:28;1.92;;;1.08;;
29934;SDS011;19905;53.370;-6.314;2023-07-28T15:24:59;3.97;;;1.10;;
29934;SDS011;19905;53.370;-6.314;2023-07-28T15:27:28;5.13;;;0.90;;
29934;SDS011;19905;53.370;-6.314;2023-07-28T15:29:58;4.15;;;1.05;;
29934;SDS011;19905;53.370;-6.314;2023-07-28T15:32:26;3.20;;;1.00;;
29934;SDS011;19905;53.370;-6.314;2023-07-28T15:34:55;2.05;;;1.00;;
29934;SDS011;19905;53.370;-6.314;2023-07-28T15:37:23;2.33;;;0.80;;
29934;SDS011;19905;53.370;-6.314;2023-07-28T15:39:52;4.53;;;1.08;;
29934;SDS011;19905;53.370;-6.314;2023-07-28T15:42:22;4.35;;;0.93;;
29934;SDS011;19905;53.370;-6.314;2023-07-28T15:44:56;1.58;;;0.68;;
29934;SDS011;19905;53.370;-6.314;2023-07-28T15:47:33;3.47;;;0.85;;
29934;SDS011;19905;53.370;-6.314;2023-07-28T15:50:03;4.43;;;0.98;;
29934;SDS011;19905;53.370;-6.314;2023-07-28T15:52:32;3.05;;;0.80;;
29934;SDS011;19905;53.370;-6.314;2023-07-28T15:55:01;4.38;;;0.80;;
29934;SDS011;19905;53.370;-6.314;2023-07-28T15:57:30;2.90;;;0.98;;
29934;SDS011;19905;53.370;-6.314;2023-07-28T16:00:01;2.85;;;0.93;;